TimeMST,TemperatureF,Dew PointF,Humidity,Sea Level PressureIn,VisibilityMPH,Wind Direction,Wind SpeedMPH,Gust SpeedMPH,PrecipitationIn,Events,Conditions,WindDirDegrees,DateUTC
12:14 AM,37.0,-4.0,17,30.21,10.0,WSW,10.4,-,N/A,,Clear,240,2013-01-24 07:14:00
12:34 AM,36.3,-5.1,17,30.21,10.0,West,9.2,-,N/A,,Clear,260,2013-01-24 07:34:00
12:54 AM,38.1,-5.3,16,30.20,10.0,West,10.4,-,N/A,,Clear,260,2013-01-24 07:54:00
1:14 AM,37.4,-3.5,18,30.20,10.0,West,13.8,-,N/A,,Clear,260,2013-01-24 08:14:00
1:34 AM,36.5,-2.2,19,30.19,10.0,West,11.5,-,N/A,,Clear,260,2013-01-24 08:34:00
1:54 AM,35.8,-1.7,20,30.18,10.0,West,12.7,-,N/A,,Clear,260,2013-01-24 08:54:00
2:14 AM,34.9,-0.8,22,30.16,10.0,West,10.4,-,N/A,,Clear,270,2013-01-24 09:14:00
2:34 AM,36.9,-1.3,20,30.16,10.0,West,5.8,11.5,N/A,,Clear,270,2013-01-24 09:34:00
2:54 AM,38.5,-2.0,18,30.16,10.0,West,10.4,-,N/A,,Clear,260,2013-01-24 09:54:00
3:14 AM,39.0,-3.6,16,30.15,10.0,West,10.4,-,N/A,,Clear,270,2013-01-24 10:14:00
3:34 AM,42.4,-4.9,14,30.14,10.0,WSW,10.4,-,N/A,,Clear,250,2013-01-24 10:34:00
3:54 AM,41.2,-5.3,14,30.13,10.0,West,6.9,-,N/A,,Clear,270,2013-01-24 10:54:00
4:14 AM,39.6,-4.5,15,30.12,10.0,WNW,9.2,-,N/A,,Clear,290,2013-01-24 11:14:00
4:34 AM,39.2,-4.5,16,30.12,10.0,NW,8.1,-,N/A,,Clear,310,2013-01-24 11:34:00
4:54 AM,40.6,-5.8,14,30.11,10.0,West,9.2,-,N/A,,Clear,270,2013-01-24 11:54:00
5:14 AM,37.9,-6.7,15,30.12,10.0,SSW,6.9,-,N/A,,Clear,210,2013-01-24 12:14:00
5:34 AM,46.4,-9.2,10,30.12,10.0,West,6.9,-,N/A,,Clear,270,2013-01-24 12:34:00
5:54 AM,46.6,-9.6,9,30.12,10.0,West,6.9,-,N/A,,Clear,260,2013-01-24 12:54:00
6:14 AM,42.8,-9.2,11,30.12,10.0,WNW,8.1,-,N/A,,Clear,290,2013-01-24 13:14:00
6:34 AM,46.8,-8.9,10,30.12,10.0,WNW,16.1,-,N/A,,Clear,300,2013-01-24 13:34:00
6:54 AM,46.6,-8.7,10,30.12,10.0,WNW,12.7,17.3,N/A,,Clear,290,2013-01-24 13:54:00
7:14 AM,44.8,-8.5,10,30.12,10.0,WNW,11.5,-,N/A,,Clear,300,2013-01-24 14:14:00
7:34 AM,46.0,-8.3,10,30.10,10.0,WNW,12.7,18.4,N/A,,Clear,300,2013-01-24 14:34:00
7:54 AM,47.8,-8.5,9,30.11,10.0,WNW,15.0,-,N/A,,Clear,300,2013-01-24 14:54:00
8:14 AM,49.1,-8.5,9,30.11,10.0,WNW,16.1,20.7,N/A,,Clear,300,2013-01-24 15:14:00
8:34 AM,52.2,-8.0,8,30.12,10.0,NW,12.7,17.3,N/A,,Clear,310,2013-01-24 15:34:00
8:54 AM,53.6,-7.8,8,30.12,10.0,WNW,12.7,20.7,N/A,,Clear,300,2013-01-24 15:54:00
9:14 AM,54.5,-8.3,7,30.13,10.0,WNW,16.1,-,N/A,,Clear,290,2013-01-24 16:14:00
9:34 AM,54.5,-7.1,8,30.12,10.0,WNW,18.4,24.2,N/A,,Clear,290,2013-01-24 16:34:00
9:54 AM,55.2,-7.6,7,30.13,10.0,West,16.1,20.7,N/A,,Clear,280,2013-01-24 16:54:00
10:14 AM,55.6,-6.0,8,30.12,10.0,West,16.1,21.9,N/A,,Clear,280,2013-01-24 17:14:00
10:34 AM,55.4,-4.7,8,30.12,10.0,WNW,15.0,20.7,N/A,,Clear,300,2013-01-24 17:34:00
11:14 AM,60.8,1.0,9,30.10,10.0,WNW,9.2,19.6,N/A,,Scattered Clouds,300,2013-01-24 18:14:00
11:34 AM,61.3,5.4,11,30.09,10.0,WNW,11.5,19.6,N/A,,Scattered Clouds,300,2013-01-24 18:34:00
11:54 AM,62.4,6.8,11,30.08,10.0,WNW,8.1,19.6,N/A,,Clear,300,2013-01-24 18:54:00
12:14 PM,60.4,7.3,12,30.06,10.0,West,12.7,20.7,N/A,,Clear,260,2013-01-24 19:14:00
12:34 PM,61.7,10.6,13,30.06,10.0,West,19.6,26.5,N/A,,Clear,260,2013-01-24 19:34:00
12:54 PM,64.0,11.7,13,30.04,10.0,West,12.7,28.8,N/A,,Clear,260,2013-01-24 19:54:00
1:14 PM,63.7,10.2,12,30.03,10.0,WSW,15.0,24.2,N/A,,Clear,250,2013-01-24 20:14:00
1:34 PM,64.4,9.9,12,30.02,10.0,SW,10.4,17.3,N/A,,Clear,230,2013-01-24 20:34:00
1:54 PM,63.5,7.7,11,30.02,10.0,South,17.3,21.9,N/A,,Clear,190,2013-01-24 20:54:00
2:14 PM,62.4,9.3,12,30.01,10.0,SW,10.4,23.0,N/A,,Clear,220,2013-01-24 21:14:00
2:34 PM,61.9,9.7,13,30.02,10.0,SSW,11.5,18.4,N/A,,Clear,210,2013-01-24 21:34:00
2:54 PM,61.2,17.4,18,30.02,10.0,WNW,17.3,27.6,N/A,,Clear,290,2013-01-24 21:54:00
3:14 PM,60.8,18.0,19,30.03,10.0,West,15.0,23.0,N/A,,Clear,280,2013-01-24 22:14:00
3:34 PM,60.6,12.4,15,30.03,10.0,North,11.5,16.1,N/A,,Clear,350,2013-01-24 22:34:00
3:54 PM,55.4,0.1,11,30.04,10.0,East,11.5,-,N/A,,Clear,80,2013-01-24 22:54:00
4:14 PM,54.9,0.1,11,30.04,10.0,East,6.9,-,N/A,,Clear,90,2013-01-24 23:14:00
4:34 PM,51.1,-1.3,12,30.05,10.0,ENE,8.1,-,N/A,,Clear,70,2013-01-24 23:34:00
4:54 PM,49.1,-0.8,13,30.06,10.0,ENE,5.8,-,N/A,,Clear,60,2013-01-24 23:54:00
5:14 PM,46.8,-1.3,14,30.07,10.0,NNE,10.4,-,N/A,,Clear,20,2013-01-25 00:14:00
5:34 PM,44.4,-2.0,14,30.08,2.5,NNE,9.2,-,N/A,,Haze,20,2013-01-25 00:34:00
5:54 PM,42.6,-2.4,15,30.10,5.0,North,8.1,-,N/A,,Haze,10,2013-01-25 00:54:00
6:14 PM,42.3,-1.8,16,30.10,0.8,North,8.1,-,N/A,,Haze,10,2013-01-25 01:14:00
6:34 PM,43.3,-2.2,15,30.11,0.8,North,8.1,-,N/A,,Haze,10,2013-01-25 01:34:00
6:54 PM,44.1,-2.7,14,30.12,3.0,North,10.4,-,N/A,,Haze,360,2013-01-25 01:54:00
7:14 PM,44.2,-3.3,14,30.12,10.0,North,10.4,-,N/A,,Clear,360,2013-01-25 02:14:00
7:34 PM,44.6,-3.8,13,30.12,10.0,North,11.5,-,N/A,,Clear,10,2013-01-25 02:34:00
7:54 PM,42.8,-3.3,14,30.13,10.0,NNW,5.8,-,N/A,,Clear,330,2013-01-25 02:54:00
8:14 PM,42.3,-2.7,15,30.14,10.0,NNW,6.9,-,N/A,,Clear,330,2013-01-25 03:14:00
8:34 PM,44.2,4.3,19,30.13,10.0,North,12.7,-,N/A,,Clear,10,2013-01-25 03:34:00
9:14 PM,38.7,9.1,30,30.15,10.0,WNW,6.9,-,N/A,,Clear,290,2013-01-25 04:14:00
9:34 PM,41.4,16.5,37,30.15,10.0,NW,8.1,-,N/A,,Clear,320,2013-01-25 04:34:00
9:54 PM,42.1,12.7,30,30.16,10.0,NNW,8.1,-,N/A,,Clear,340,2013-01-25 04:54:00
10:14 PM,39.9,11.1,31,30.16,10.0,North,11.5,-,N/A,,Clear,10,2013-01-25 05:14:00
10:34 PM,39.6,9.1,29,30.18,10.0,North,8.1,-,N/A,,Clear,360,2013-01-25 05:34:00
10:54 PM,37.8,9.1,31,30.18,10.0,North,6.9,-,N/A,,Clear,360,2013-01-25 05:54:00
11:14 PM,39.9,14.0,35,30.18,10.0,North,9.2,-,N/A,,Clear,360,2013-01-25 06:14:00
11:34 PM,36.3,15.3,42,30.18,10.0,NNW,8.1,-,N/A,,Clear,330,2013-01-25 06:34:00
11:54 PM,39.4,18.7,43,30.16,10.0,North,6.9,-,N/A,,Clear,360,2013-01-25 06:54:00